createdAt,value
2022-10-26T03:46:32.620Z,11.63
2022-10-26T03:49:36.069Z,9.15
2022-10-26T03:52:38.796Z,10.93
2022-10-26T03:55:44.658Z,9.63
2022-10-26T03:58:47.012Z,11.88
2022-10-26T04:01:52.754Z,13.30
2022-10-26T04:04:58.130Z,12.63
2022-10-26T04:08:04.685Z,9.68
2022-10-26T04:11:07.387Z,13.10
2022-10-26T04:14:09.640Z,16.02
2022-10-26T04:17:12.243Z,16.15
2022-10-26T04:20:15.265Z,12.25
2022-10-26T04:23:19.516Z,15.63
2022-10-26T04:26:21.829Z,16.10
2022-10-26T04:29:24.468Z,11.10
2022-10-26T04:32:27.020Z,12.33
2022-10-26T04:35:30.211Z,10.50
2022-10-26T04:38:32.573Z,8.43
2022-10-26T04:41:35.131Z,9.20
2022-10-26T04:44:37.422Z,9.88
2022-10-26T04:47:40.674Z,10.70
2022-10-26T04:50:42.957Z,13.43
2022-10-26T04:53:45.490Z,12.40
2022-10-26T04:56:47.723Z,10.70
2022-10-26T04:59:50.655Z,10.60
2022-10-26T05:03:02.865Z,11.50
2022-10-26T05:06:05.665Z,10.82
2022-10-26T05:09:08.011Z,13.45
2022-10-26T05:12:10.577Z,11.87
2022-10-26T05:15:15.071Z,12.32
2022-10-26T05:18:17.850Z,14.70
2022-10-26T05:21:20.225Z,12.23
2022-10-26T05:24:22.831Z,15.77
2022-10-26T05:27:25.181Z,12.70
2022-10-26T05:30:29.956Z,13.65
2022-10-26T05:33:32.230Z,15.13
2022-10-26T05:36:34.726Z,14.57
2022-10-26T05:39:37.035Z,12.80
2022-10-26T05:42:39.611Z,15.48
2022-10-26T05:45:41.870Z,11.68
2022-10-26T05:48:44.543Z,15.30
2022-10-26T05:51:46.897Z,15.40
2022-10-26T05:54:49.500Z,17.43
2022-10-26T05:57:52.144Z,18.23
2022-10-26T06:01:20.202Z,20.88
2022-10-26T06:04:38.750Z,29.08
2022-10-26T06:07:41.504Z,28.62
2022-10-26T06:10:44.321Z,23.27
2022-10-26T06:13:46.956Z,25.95
2022-10-26T06:16:57.563Z,30.50
2022-10-26T06:20:22.257Z,41.97
2022-10-26T06:23:44.864Z,27.67
2022-10-26T06:27:15.768Z,21.75
2022-10-26T06:30:23.316Z,21.70
2022-10-26T06:33:30.631Z,26.10
2022-10-26T06:36:34.102Z,23.45
2022-10-26T06:39:42.195Z,23.65
2022-10-26T06:42:45.037Z,25.33
2022-10-26T06:45:52.102Z,22.97
2022-10-26T06:49:10.971Z,23.52
2022-10-26T06:52:25.619Z,22.23
2022-10-26T06:55:37.394Z,23.00
2022-10-26T06:58:41.317Z,24.20
2022-10-26T07:01:44.299Z,19.20
2022-10-26T07:04:47.408Z,18.47
2022-10-26T07:10:52.826Z,29.60
2022-10-26T07:13:55.569Z,32.60
2022-10-26T07:16:57.970Z,19.77
2022-10-26T07:20:00.550Z,35.50
2022-10-26T07:23:02.907Z,25.83
2022-10-26T07:26:05.657Z,25.90
2022-10-26T07:29:08.119Z,22.53
2022-10-26T07:32:10.764Z,28.52
2022-10-26T07:35:13.143Z,25.08
2022-10-26T07:38:15.641Z,26.67
2022-10-26T07:41:17.977Z,27.10
2022-10-26T07:44:20.487Z,26.42
2022-10-26T07:47:22.922Z,24.33
2022-10-26T07:50:25.894Z,27.60
2022-10-26T07:53:28.362Z,23.80
2022-10-26T07:56:30.944Z,24.27
2022-10-26T07:59:33.348Z,17.60
2022-10-26T08:02:36.467Z,22.92
2022-10-26T08:05:39.007Z,24.12
2022-10-26T08:08:44.951Z,28.62
2022-10-26T08:11:49.875Z,25.80
2022-10-26T08:14:52.166Z,18.23
2022-10-26T08:17:54.648Z,20.33
2022-10-26T08:21:10.690Z,18.87
2022-10-26T08:24:14.918Z,18.75
2022-10-26T08:27:17.842Z,19.87
2022-10-26T08:30:20.762Z,18.60
2022-10-26T08:33:24.078Z,21.23
2022-10-26T08:39:30.859Z,24.42
2022-10-26T08:42:42.911Z,20.25
2022-10-26T08:45:56.711Z,21.15
2022-10-26T08:49:14.752Z,26.80
2022-10-26T08:52:20.460Z,28.70
2022-10-26T08:55:28.918Z,24.25
2022-10-26T08:58:39.817Z,27.08
2022-10-26T09:01:42.731Z,24.27
2022-10-26T09:04:45.501Z,17.73
2022-10-26T09:07:53.385Z,18.85
2022-10-26T09:11:17.926Z,17.75
2022-10-26T09:14:38.317Z,18.85
2022-10-26T09:17:46.680Z,16.08
2022-10-26T09:21:03.499Z,16.65
2022-10-26T09:24:21.982Z,17.50
2022-10-26T09:27:34.730Z,17.48
2022-10-26T09:30:37.802Z,14.35
2022-10-26T09:36:42.967Z,13.27
2022-10-26T09:39:54.948Z,14.60
2022-10-26T09:42:59.982Z,16.15
2022-10-26T09:46:02.642Z,13.70
2022-10-26T09:49:08.604Z,14.63
2022-10-26T09:55:20.748Z,11.18
2022-10-26T09:58:28.795Z,9.60
2022-10-26T10:01:36.853Z,13.73
2022-10-26T10:04:48.176Z,10.98
2022-10-26T10:07:51.206Z,12.55
2022-10-26T10:10:59.183Z,10.00
2022-10-26T10:14:08.788Z,10.73
2022-10-26T10:17:22.660Z,10.88
2022-10-26T10:20:31.740Z,12.70
2022-10-26T10:23:49.771Z,12.32
2022-10-26T10:26:59.526Z,14.27
2022-10-26T10:30:22.431Z,12.68
2022-10-26T10:33:36.018Z,16.62
2022-10-26T10:36:40.025Z,16.27
2022-10-26T10:39:42.907Z,15.90
2022-10-26T10:42:47.704Z,15.27
2022-10-26T10:45:54.736Z,15.07
2022-10-26T10:49:06.666Z,14.85
2022-10-26T10:52:23.053Z,17.62
2022-10-26T10:55:26.897Z,18.62
2022-10-26T10:58:38.490Z,15.95
2022-10-26T11:01:52.155Z,18.37
2022-10-26T11:05:04.482Z,22.58
2022-10-26T11:08:12.600Z,17.20
2022-10-26T11:11:40.581Z,17.58
2022-10-26T11:14:52.383Z,19.25
2022-10-26T11:18:05.092Z,19.00
2022-10-26T11:21:28.959Z,22.85
2022-10-26T11:24:43.883Z,22.23
2022-10-26T11:27:55.923Z,20.58
2022-10-26T11:31:03.409Z,19.87
2022-10-26T11:34:46.146Z,22.70
2022-10-26T11:38:05.511Z,23.15
2022-10-26T11:41:26.036Z,25.25
2022-10-26T11:44:37.966Z,20.08
2022-10-26T11:47:48.153Z,24.17
2022-10-26T11:50:55.027Z,22.30
2022-10-26T11:54:06.130Z,28.67
2022-10-26T11:57:10.380Z,25.58
2022-10-26T12:00:13.028Z,27.40
2022-10-26T12:03:26.972Z,31.75
2022-10-26T12:06:33.081Z,27.40
2022-10-26T12:09:38.878Z,29.75
2022-10-26T12:13:08.870Z,28.25
2022-10-26T12:16:42.770Z,24.50
2022-10-26T12:19:51.388Z,33.85
2022-10-26T12:22:54.121Z,27.05
2022-10-26T12:26:24.365Z,30.10
2022-10-26T12:29:31.578Z,26.95
2022-10-26T12:32:33.797Z,28.58
2022-10-26T12:35:39.331Z,29.60
2022-10-26T12:38:41.586Z,27.45
2022-10-26T12:41:56.155Z,38.07
2022-10-26T12:44:58.404Z,27.23
2022-10-26T12:48:10.671Z,26.30
2022-10-26T12:51:24.554Z,31.75
2022-10-26T12:54:45.881Z,30.50
2022-10-26T12:58:00.178Z,23.83
2022-10-26T13:01:03.434Z,29.98
2022-10-26T13:04:38.318Z,24.25
2022-10-26T13:07:41.762Z,28.98
2022-10-26T13:11:13.957Z,26.23
2022-10-26T13:14:21.936Z,27.08
2022-10-26T13:17:27.174Z,25.75
2022-10-26T13:20:31.920Z,30.88
2022-10-26T13:23:37.791Z,36.15
2022-10-26T13:27:19.430Z,24.65
2022-10-26T13:30:46.248Z,25.50
2022-10-26T13:33:52.341Z,33.60
2022-10-26T13:37:14.153Z,24.90
2022-10-26T13:40:23.377Z,30.98
2022-10-26T13:43:27.406Z,23.38
2022-10-26T13:46:35.708Z,28.35
2022-10-26T13:49:44.216Z,26.20
2022-10-26T13:53:01.096Z,23.52
2022-10-26T13:56:21.715Z,25.80
2022-10-26T13:59:26.526Z,28.12
2022-10-26T14:02:32.435Z,24.58
2022-10-26T14:05:50.867Z,34.10
2022-10-26T14:08:57.610Z,20.33
2022-10-26T14:12:02.107Z,32.53
2022-10-26T14:15:09.164Z,23.25
2022-10-26T14:18:18.064Z,21.40
2022-10-26T14:21:22.616Z,21.73
2022-10-26T14:24:45.646Z,21.37
2022-10-26T14:27:49.716Z,22.60
2022-10-26T14:33:57.150Z,23.67
2022-10-26T14:37:04.999Z,23.50
2022-10-26T14:40:15.861Z,21.62
2022-10-26T14:43:22.909Z,18.17
2022-10-26T14:46:27.216Z,20.77
2022-10-26T14:49:30.095Z,19.55
2022-10-26T14:52:35.858Z,19.75
2022-10-26T14:55:50.959Z,21.60
2022-10-26T14:58:53.793Z,15.73
2022-10-26T15:02:18.137Z,17.85
2022-10-26T15:05:23.619Z,15.50
2022-10-26T15:08:55.832Z,20.73
2022-10-26T15:11:59.619Z,15.82
2022-10-26T15:18:23.714Z,16.75
2022-10-26T15:21:40.130Z,18.00
2022-10-26T15:24:43.351Z,15.93
2022-10-26T15:27:47.944Z,14.25
2022-10-26T15:31:23.401Z,14.15
2022-10-26T15:34:26.196Z,18.85
2022-10-26T15:37:28.580Z,19.40
2022-10-26T15:40:31.921Z,17.45
2022-10-26T15:43:34.219Z,22.60
